Maskali — FAA5424 — position and weather

sailwx.info

Track history (hours):
 
Tides and Currents Weather Stations Pressure Air Temp Water Temp Dewpoint Dewpoint Depression Visibility Wind Speed Wind Dir Waves Ship Positions

Maskali

Last reported at 2018-Jun-13 10:16 UTC. Time now 2018-Jun-17 22:06 UTC.
Position N 38°31' W 028°41'.

Length 16 m.

Type: Sailing vessel. MMSI: 227133030.

Date/timePositionNaut miles runAvg speedWind from/ knotsBaromVisibWave heightAir tempDewpointWater temp
2018-Jun-13 10:16N 38°31' W 028°41'1 5.4
2018-Jun-13 10:00N 38°31' W 028°43'3 5.2
2018-Jun-13 09:30N 38°31' W 028°46'2 4.4
2018-Jun-13 09:00N 38°32' W 028°49'2 4.9
2018-Jun-13 08:30N 38°33' W 028°52'2 4.5
2018-Jun-13 08:00N 38°34' W 028°54'3 5.2
2018-Jun-13 07:30N 38°35' W 028°57'3 6.3
2018-Jun-13 07:00N 38°37' W 029°01'3 6.5
2018-Jun-13 06:30N 38°38' W 029°04'3 6.0
2018-Jun-13 06:00N 38°40' W 029°08'3 5.4
2018-Jun-13 05:30N 38°41' W 029°11'3 5.8
2018-Jun-13 04:59N 38°42' W 029°15'3 6.5
2018-Jun-13 04:30N 38°43' W 029°18'3 6.8
2018-Jun-13 04:00N 38°44' W 029°22'4 7.2
2018-Jun-13 03:30N 38°46' W 029°27'4 7.5
2018-Jun-13 03:00N 38°48' W 029°31'4 7.5
2018-Jun-13 02:30N 38°49' W 029°35'4 7.4
2018-Jun-13 01:58N 38°50' W 029°40'3 7.3
2018-Jun-13 01:29N 38°52' W 029°44'6 7.4
2018-Jun-13 00:43N 38°54' W 029°51'4 7.2
2018-Jun-13 00:10N 38°56' W 029°56'  
Track history (hours):
 
Tides and Currents Weather Stations Pressure Air Temp Water Temp Dewpoint Dewpoint Depression Visibility Wind Speed Wind Dir Waves Ship Positions

Maskali

Last reported at 2018-Jun-13 10:16 UTC. Time now 2018-Jun-17 22:06 UTC.
Position N 38°31' W 028°41'.

Length 16 m.

Type: Sailing vessel. MMSI: 227133030.

Date/timePositionNaut miles runAvg speedWind from/ knotsBaromVisibWave heightAir tempDewpointWater temp
2018-Jun-13 10:16N 38°31' W 028°41'1 5.4
2018-Jun-13 10:00N 38°31' W 028°43'3 5.2
2018-Jun-13 09:30N 38°31' W 028°46'2 4.4
2018-Jun-13 09:00N 38°32' W 028°49'2 4.9
2018-Jun-13 08:30N 38°33' W 028°52'2 4.5
2018-Jun-13 08:00N 38°34' W 028°54'3 5.2
2018-Jun-13 07:30N 38°35' W 028°57'3 6.3
2018-Jun-13 07:00N 38°37' W 029°01'3 6.5
2018-Jun-13 06:30N 38°38' W 029°04'3 6.0
2018-Jun-13 06:00N 38°40' W 029°08'3 5.4
2018-Jun-13 05:30N 38°41' W 029°11'3 5.8
2018-Jun-13 04:59N 38°42' W 029°15'3 6.5
2018-Jun-13 04:30N 38°43' W 029°18'3 6.8
2018-Jun-13 04:00N 38°44' W 029°22'4 7.2
2018-Jun-13 03:30N 38°46' W 029°27'4 7.5
2018-Jun-13 03:00N 38°48' W 029°31'4 7.5
2018-Jun-13 02:30N 38°49' W 029°35'4 7.4
2018-Jun-13 01:58N 38°50' W 029°40'3 7.3
2018-Jun-13 01:29N 38°52' W 029°44'6 7.4
2018-Jun-13 00:43N 38°54' W 029°51'4 7.2
2018-Jun-13 00:10N 38°56' W 029°56'  

Dump ship's entire track history